^^
Your Local Weather - Clay, NY Station Historical Data
Daily Summary for August 11, 2017 Units:  English    Metric   Both
« Previous Day
Next Day »
Daily Weekly Monthly Yearly Custom
  High: Low: Average:
Temperature: 77.8 °F 59.1 °F 69.2 °F
Dew Point: 66.1 °F 56.6 °F 61.8 °F
Humidity: 92% 62% 78%
Wind Speed: 6.0mph 0.0mph 1.4mph
Wind Gust: 10.0mph - -
Wind- - South
Pressure: 30.08 in 29.86 in -
Precipitation: 0.00 in    
Historical Graphs
 
 
Tabular Data for August 11, 2017
Time Temperature Dew Point Pressure Wind Wind Speed Wind Gust Humidity Rainfall Rate (Hourly) solar
00:00 61.9 °F 58.3 °F 30.08 in Calm     88% 0.00 in 0 W/m2
00:06 61.8 °F 58.2 °F 30.08 in Calm     88% 0.00 in 0 W/m2
00:12 61.6 °F 58.0 °F 30.08 in Calm     88% 0.00 in 0 W/m2
00:18 61.6 °F 58.3 °F 30.08 in Calm     89% 0.00 in 0 W/m2
00:24 61.5 °F 58.2 °F 30.08 in Calm     89% 0.00 in 0 W/m2
00:30 61.3 °F 58.0 °F 30.08 in Calm     89% 0.00 in 0 W/m2
00:36 61.2 °F 57.9 °F 30.08 in Calm     89% 0.00 in 0 W/m2
00:42 61.1 °F 57.8 °F 30.08 in Calm     89% 0.00 in 0 W/m2
00:48 61.2 °F 57.9 °F 30.08 in Calm     89% 0.00 in 0 W/m2
00:54 61.2 °F 57.9 °F 30.08 in Calm     89% 0.00 in 0 W/m2
01:00 61.3 °F 58.3 °F 30.08 in Calm     90% 0.00 in 0 W/m2
01:06 61.4 °F 58.4 °F 30.08 in Calm     90% 0.00 in 0 W/m2
01:12 61.5 °F 58.5 °F 30.08 in Calm     90% 0.00 in 0 W/m2
01:18 61.6 °F 58.6 °F 30.08 in Calm     90% 0.00 in 0 W/m2
01:24 61.6 °F 58.6 °F 30.08 in Calm     90% 0.00 in 0 W/m2
01:30 61.5 °F 58.5 °F 30.08 in Calm     90% 0.00 in 0 W/m2
01:36 61.3 °F 58.0 °F 30.08 in Calm     89% 0.00 in 0 W/m2
01:42 61.0 °F 57.7 °F 30.08 in Calm     89% 0.00 in 0 W/m2
01:48 60.9 °F 57.9 °F 30.08 in Calm     90% 0.00 in 0 W/m2
01:54 60.9 °F 57.9 °F 30.07 in Calm     90% 0.00 in 0 W/m2
02:00 60.7 °F 57.7 °F 30.08 in Calm     90% 0.00 in 0 W/m2
02:06 60.5 °F 57.6 °F 30.08 in Calm     90% 0.00 in 0 W/m2
02:12 60.5 °F 57.6 °F 30.07 in Calm     90% 0.00 in 0 W/m2
02:18 60.3 °F 57.4 °F 30.07 in Calm     90% 0.00 in 0 W/m2
02:22 60.3 °F 57.4 °F 30.07 in Calm     90% 0.00 in 0 W/m2
02:28 60.3 °F 57.4 °F 30.07 in Calm     90% 0.00 in 0 W/m2
02:34 60.2 °F 57.3 °F 30.07 in Calm     90% 0.00 in 0 W/m2
02:40 60.3 °F 57.4 °F 30.07 in Calm     90% 0.00 in 0 W/m2
02:46 60.5 °F 57.9 °F 30.07 in Calm     91% 0.00 in 0 W/m2
02:52 60.5 °F 57.9 °F 30.07 in Calm     91% 0.00 in 0 W/m2
02:58 60.5 °F 57.9 °F 30.07 in Calm     91% 0.00 in 0 W/m2
03:04 60.5 °F 57.9 °F 30.06 in Calm     91% 0.00 in 0 W/m2
03:10 60.5 °F 57.9 °F 30.06 in Calm     91% 0.00 in 0 W/m2
03:16 60.6 °F 58.0 °F 30.05 in Calm     91% 0.00 in 0 W/m2
03:22 60.6 °F 58.0 °F 30.05 in Calm     91% 0.00 in 0 W/m2
03:28 60.6 °F 58.0 °F 30.05 in Calm     91% 0.00 in 0 W/m2
03:34 60.5 °F 57.9 °F 30.06 in Calm     91% 0.00 in 0 W/m2
03:40 60.3 °F 57.7 °F 30.05 in Calm     91% 0.00 in 0 W/m2
03:46 60.3 °F 57.7 °F 30.05 in Calm     91% 0.00 in 0 W/m2
03:52 60.2 °F 57.6 °F 30.05 in Calm     91% 0.00 in 0 W/m2
03:58 60.0 °F 57.4 °F 30.05 in Calm     91% 0.00 in 0 W/m2
04:04 59.9 °F 57.3 °F 30.05 in Calm     91% 0.00 in 0 W/m2
04:10 59.7 °F 57.1 °F 30.05 in Calm     91% 0.00 in 0 W/m2
04:16 59.5 °F 56.9 °F 30.05 in Calm     91% 0.00 in 0 W/m2
04:22 59.5 °F 56.9 °F 30.05 in Calm     91% 0.00 in 0 W/m2
04:28 59.4 °F 56.8 °F 30.05 in Calm     91% 0.00 in 0 W/m2
04:34 59.3 °F 56.7 °F 30.05 in Calm     91% 0.00 in 0 W/m2
04:40 59.2 °F 56.6 °F 30.05 in Calm     91% 0.00 in 0 W/m2
04:46 59.3 °F 57.0 °F 30.05 in Calm     92% 0.00 in 0 W/m2
04:52 59.3 °F 57.0 °F 30.04 in Calm     92% 0.00 in 0 W/m2
04:58 59.4 °F 57.1 °F 30.04 in Calm     92% 0.00 in 0 W/m2
05:04 59.3 °F 57.0 °F 30.04 in Calm     92% 0.00 in 0 W/m2
05:10 59.2 °F 56.9 °F 30.04 in Calm     92% 0.00 in 0 W/m2
05:16 59.1 °F 56.8 °F 30.04 in Calm     92% 0.00 in 0 W/m2
05:22 59.2 °F 56.9 °F 30.04 in Calm     92% 0.00 in 0 W/m2
05:28 59.4 °F 57.1 °F 30.04 in Calm     92% 0.00 in 0 W/m2
05:34 59.4 °F 57.1 °F 30.04 in Calm     92% 0.00 in 0 W/m2
05:40 59.5 °F 57.2 °F 30.04 in Calm     92% 0.00 in 0 W/m2
05:46 59.5 °F 57.2 °F 30.04 in Calm     92% 0.00 in 0 W/m2
05:52 59.5 °F 57.2 °F 30.04 in Calm     92% 0.00 in 0 W/m2
05:58 59.4 °F 57.1 °F 30.05 in Calm     92% 0.00 in 0 W/m2
06:04 59.3 °F 57.0 °F 30.05 in Calm     92% 0.00 in 0 W/m2
06:10 59.4 °F 57.1 °F 30.05 in Calm     92% 0.00 in 5 W/m2
06:16 59.4 °F 57.1 °F 30.05 in Calm     92% 0.00 in 9 W/m2
06:22 59.4 °F 57.1 °F 30.05 in Calm     92% 0.00 in 14 W/m2
06:28 59.5 °F 57.2 °F 30.05 in Calm     92% 0.00 in 21 W/m2
06:34 59.5 °F 57.2 °F 30.05 in Calm     92% 0.00 in 28 W/m2
06:40 59.6 °F 57.3 °F 30.05 in Calm     92% 0.00 in 28 W/m2
06:46 59.8 °F 57.5 °F 30.05 in Calm     92% 0.00 in 32 W/m2
06:52 59.9 °F 57.6 °F 30.05 in Calm     92% 0.00 in 51 W/m2
06:58 60.1 °F 57.8 °F 30.05 in Calm     92% 0.00 in 54 W/m2
07:04 60.5 °F 58.2 °F 30.05 in Calm     92% 0.00 in 70 W/m2
07:10 61.0 °F 58.7 °F 30.05 in Calm     92% 0.00 in 86 W/m2
07:16 61.5 °F 58.8 °F 30.05 in Calm     91% 0.00 in 77 W/m2
07:22 62.0 °F 59.3 °F 30.04 in Calm   2.0 mph 91% 0.00 in 102 W/m2
07:28 62.5 °F 59.2 °F 30.05 in Calm   2.0 mph 89% 0.00 in 167 W/m2
07:34 63.4 °F 59.5 °F 30.05 in Calm     87% 0.00 in 172 W/m2
07:40 64.4 °F 59.8 °F 30.05 in Calm   1.0 mph 85% 0.00 in 225 W/m2
07:46 65.5 °F 60.2 °F 30.04 in Calm   1.0 mph 83% 0.00 in 290 W/m2
07:52 66.4 °F 60.4 °F 30.04 in SE 1.0 mph 1.0 mph 81% 0.00 in 155 W/m2
07:58 66.7 °F 60.3 °F 30.04 in SE 1.0 mph 4.0 mph 80% 0.00 in 137 W/m2
08:04 66.9 °F 60.5 °F 30.04 in SE 1.0 mph 1.0 mph 80% 0.00 in 142 W/m2
08:10 67.2 °F 60.5 °F 30.04 in Calm     79% 0.00 in 174 W/m2
08:16 67.5 °F 61.5 °F 30.04 in Calm     81% 0.00 in 158 W/m2
08:22 67.8 °F 61.8 °F 30.04 in Calm     81% 0.00 in 176 W/m2
08:28 68.1 °F 61.3 °F 30.03 in Calm     79% 0.00 in 178 W/m2
08:34 68.6 °F 61.5 °F 30.03 in SE 1.0 mph 2.0 mph 78% 0.00 in 195 W/m2
08:40 69.2 °F 61.3 °F 30.03 in South 1.0 mph 4.0 mph 76% 0.00 in 213 W/m2
08:46 69.7 °F 61.4 °F 30.03 in SSE 3.0 mph 4.0 mph 75% 0.00 in 207 W/m2
08:52 70.0 °F 61.3 °F 30.03 in SSE 3.0 mph 4.0 mph 74% 0.00 in 209 W/m2
08:58 70.3 °F 62.0 °F 30.03 in SSE 3.0 mph 4.0 mph 75% 0.00 in 209 W/m2
09:04 70.3 °F 61.2 °F 30.02 in SE 3.0 mph 6.0 mph 73% 0.00 in 260 W/m2
09:10 70.5 °F 61.0 °F 30.03 in South 5.0 mph 5.0 mph 72% 0.00 in 371 W/m2
09:16 71.0 °F 61.5 °F 30.03 in SE 4.0 mph 5.0 mph 72% 0.00 in 385 W/m2
09:22 71.4 °F 61.5 °F 30.03 in SSE 4.0 mph 7.0 mph 71% 0.00 in 487 W/m2
09:28 72.2 °F 61.9 °F 30.03 in SE 4.0 mph 7.0 mph 70% 0.00 in 561 W/m2
09:34 72.7 °F 61.9 °F 30.03 in SSW 4.0 mph 6.0 mph 69% 0.00 in 557 W/m2
09:40 73.1 °F 61.9 °F 30.03 in SE 4.0 mph 4.0 mph 68% 0.00 in 429 W/m2
09:46 72.8 °F 61.6 °F 30.03 in South 5.0 mph 8.0 mph 68% 0.00 in 299 W/m2
09:52 72.6 °F 61.8 °F 30.02 in SE 5.0 mph 9.0 mph 69% 0.00 in 339 W/m2
09:58 72.7 °F 62.3 °F 30.02 in SSE 4.0 mph 9.0 mph 70% 0.00 in 427 W/m2
10:04 72.9 °F 61.7 °F 30.03 in SW 4.0 mph 8.0 mph 68% 0.00 in 297 W/m2
10:10 72.8 °F 62.0 °F 30.03 in SSE 5.0 mph 5.0 mph 69% 0.00 in 330 W/m2
10:16 72.8 °F 62.0 °F 30.02 in SSE 5.0 mph 7.0 mph 69% 0.00 in 431 W/m2
10:22 73.1 °F 62.3 °F 30.03 in SW 5.0 mph 8.0 mph 69% 0.00 in 566 W/m2
10:28 73.5 °F 61.9 °F 30.03 in South 6.0 mph 8.0 mph 67% 0.00 in 390 W/m2
10:34 73.6 °F 62.4 °F 30.02 in South 5.0 mph 5.0 mph 68% 0.00 in 636 W/m2
10:40 74.2 °F 62.5 °F 30.02 in SSE 5.0 mph 5.0 mph 67% 0.00 in 494 W/m2
10:46 74.3 °F 62.2 °F 30.02 in SW 4.0 mph 6.0 mph 66% 0.00 in 513 W/m2
10:52 73.9 °F 61.8 °F 30.02 in South 5.0 mph 7.0 mph 66% 0.00 in 487 W/m2
10:58 74.0 °F 61.9 °F 30.02 in WSW 5.0 mph 7.0 mph 66% 0.00 in 431 W/m2
11:04 74.0 °F 61.9 °F 30.02 in South 5.0 mph 5.0 mph 66% 0.00 in 555 W/m2
11:10 73.9 °F 61.8 °F 30.02 in SSE 6.0 mph 10.0 mph 66% 0.00 in 385 W/m2
11:16 73.8 °F 61.7 °F 30.02 in WSW 5.0 mph 10.0 mph 66% 0.00 in 439 W/m2
11:22 74.1 °F 62.0 °F 30.01 in SSE 4.0 mph 6.0 mph 66% 0.00 in 388 W/m2
11:28 73.9 °F 61.8 °F 30.01 in SSE 4.0 mph 8.0 mph 66% 0.00 in 413 W/m2
11:34 74.0 °F 62.8 °F 30.00 in SSE 4.0 mph 6.0 mph 68% 0.00 in 473 W/m2
11:40 74.2 °F 62.5 °F 30.00 in SE 4.0 mph 6.0 mph 67% 0.00 in 496 W/m2
11:46 74.4 °F 62.3 °F 30.00 in SW 4.0 mph 6.0 mph 66% 0.00 in 390 W/m2
11:52 74.9 °F 63.2 °F 30.00 in SSE 3.0 mph 4.0 mph 67% 0.00 in 675 W/m2
11:58 75.0 °F 62.9 °F 30.00 in SSE 3.0 mph 6.0 mph 66% 0.00 in 533 W/m2
12:04 74.8 °F 62.7 °F 30.00 in SSE 4.0 mph 5.0 mph 66% 0.00 in 520 W/m2
12:10 74.9 °F 63.2 °F 30.00 in South 4.0 mph 4.0 mph 67% 0.00 in 490 W/m2
12:16 76.2 °F 63.1 °F 29.99 in SW 3.0 mph 4.0 mph 64% 0.00 in 872 W/m2
12:22 75.8 °F 63.6 °F 29.99 in South 3.0 mph 5.0 mph 66% 0.00 in 642 W/m2
12:28 75.4 °F 62.4 °F 29.99 in SE 3.0 mph 5.0 mph 64% 0.00 in 334 W/m2
12:36 75.6 °F 63.4 °F 30.00 in South 3.0 mph 7.0 mph 66% 0.00 in 383 W/m2
12:42 75.5 °F 62.0 °F 29.99 in SW 3.0 mph 3.0 mph 63% 0.00 in 508 W/m2
12:48 75.9 °F 64.2 °F 29.99 in South 2.0 mph 7.0 mph 67% 0.00 in 536 W/m2
12:54 76.2 °F 64.4 °F 29.99 in SSE 3.0 mph 3.0 mph 67% 0.00 in 654 W/m2
13:00 76.8 °F 62.8 °F 29.99 in South 2.0 mph 2.0 mph 62% 0.00 in 721 W/m2
13:06 77.0 °F 64.3 °F 29.98 in SE 2.0 mph 3.0 mph 65% 0.00 in 817 W/m2
13:12 76.9 °F 63.8 °F 29.98 in SSE 3.0 mph 7.0 mph 64% 0.00 in 552 W/m2
13:18 76.9 °F 64.7 °F 29.98 in SSE 4.0 mph 7.0 mph 66% 0.00 in 619 W/m2
13:24 77.3 °F 64.6 °F 29.98 in SE 3.0 mph 4.0 mph 65% 0.00 in 612 W/m2
13:30 77.0 °F 63.9 °F 29.98 in SSE 3.0 mph 5.0 mph 64% 0.00 in 394 W/m2
13:36 76.5 °F 63.9 °F 29.98 in South 3.0 mph 7.0 mph 65% 0.00 in 385 W/m2
13:42 77.1 °F 63.5 °F 29.98 in SSW 3.0 mph 5.0 mph 63% 0.00 in 568 W/m2
13:48 77.5 °F 64.8 °F 29.98 in SW 3.0 mph 5.0 mph 65% 0.00 in 378 W/m2
13:54 77.7 °F 65.4 °F 29.97 in West 2.0 mph 4.0 mph 66% 0.00 in 689 W/m2
14:00 77.8 °F 63.7 °F 29.97 in SSW 2.0 mph 6.0 mph 62% 0.00 in 577 W/m2
14:06 77.8 °F 64.2 °F 29.97 in SW 4.0 mph 6.0 mph 63% 0.00 in 659 W/m2
14:12 77.7 °F 64.1 °F 29.97 in SSW 3.0 mph 5.0 mph 63% 0.00 in 325 W/m2
14:18 77.3 °F 64.2 °F 29.97 in SW 3.0 mph 5.0 mph 64% 0.00 in 288 W/m2
14:24 77.2 °F 65.0 °F 29.97 in SSE 3.0 mph 5.0 mph 66% 0.00 in 255 W/m2
14:30 76.8 °F 64.1 °F 29.97 in SSW 3.0 mph 4.0 mph 65% 0.00 in 443 W/m2
14:36 77.2 °F 65.0 °F 29.97 in SE 3.0 mph 4.0 mph 66% 0.00 in 323 W/m2
14:42 77.3 °F 64.2 °F 29.96 in SSW 1.0 mph 5.0 mph 64% 0.00 in 202 W/m2
14:48 76.9 °F 64.2 °F 29.96 in South 2.0 mph 5.0 mph 65% 0.00 in 93 W/m2
15:00 76.4 °F 65.1 °F 29.96 in South 2.0 mph 5.0 mph 68% 0.00 in 313 W/m2
15:06 76.7 °F 64.9 °F 29.96 in SW 3.0 mph 5.0 mph 67% 0.00 in 316 W/m2
15:12 76.9 °F 64.7 °F 29.96 in SSW 3.0 mph 3.0 mph 66% 0.00 in 246 W/m2
15:18 76.8 °F 64.6 °F 29.95 in WSW 3.0 mph 4.0 mph 66% 0.00 in 265 W/m2
15:24 76.7 °F 64.0 °F 29.95 in WSW 2.0 mph 3.0 mph 65% 0.00 in 257 W/m2
15:30 76.5 °F 64.3 °F 29.95 in SSW 3.0 mph 3.0 mph 66% 0.00 in 239 W/m2
15:36 76.4 °F 64.2 °F 29.94 in SW 3.0 mph 3.0 mph 66% 0.00 in 237 W/m2
15:42 76.4 °F 64.6 °F 29.95 in SW 2.0 mph 5.0 mph 67% 0.00 in 186 W/m2
15:48 76.4 °F 64.6 °F 29.94 in SW 2.0 mph 5.0 mph 67% 0.00 in 144 W/m2
15:54 76.3 °F 64.5 °F 29.94 in South 2.0 mph 3.0 mph 67% 0.00 in 156 W/m2
16:00 76.2 °F 64.4 °F 29.94 in SW 2.0 mph 2.0 mph 67% 0.00 in 186 W/m2
16:06 76.4 °F 64.6 °F 29.94 in South 2.0 mph 4.0 mph 67% 0.00 in 193 W/m2
16:12 76.5 °F 65.6 °F 29.94 in SSE 2.0 mph 3.0 mph 69% 0.00 in 206 W/m2
16:18 76.6 °F 65.2 °F 29.94 in SSE 2.0 mph 3.0 mph 68% 0.00 in 188 W/m2
16:24 76.6 °F 65.2 °F 29.94 in SW 2.0 mph 3.0 mph 68% 0.00 in 202 W/m2
16:30 76.7 °F 64.9 °F 29.93 in South 3.0 mph 3.0 mph 67% 0.00 in 211 W/m2
16:36 76.8 °F 64.6 °F 29.93 in SSW 3.0 mph 5.0 mph 66% 0.00 in 229 W/m2
16:42 77.0 °F 64.8 °F 29.93 in SSW 3.0 mph 3.0 mph 66% 0.00 in 213 W/m2
16:48 77.1 °F 65.3 °F 29.93 in SSW 2.0 mph 3.0 mph 67% 0.00 in 207 W/m2
16:54 77.3 °F 65.1 °F 29.93 in SW 1.0 mph 4.0 mph 66% 0.00 in 209 W/m2
17:00 77.3 °F 65.5 °F 29.93 in SSW 2.0 mph 3.0 mph 67% 0.00 in 183 W/m2
17:06 77.3 °F 65.1 °F 29.93 in SSW 1.0 mph 3.0 mph 66% 0.00 in 200 W/m2
17:12 77.3 °F 65.5 °F 29.93 in SSE 2.0 mph 3.0 mph 67% 0.00 in 163 W/m2
17:18 77.2 °F 65.4 °F 29.93 in SW 2.0 mph 3.0 mph 67% 0.00 in 111 W/m2
17:24 77.1 °F 65.7 °F 29.92 in SW 1.0 mph 2.0 mph 68% 0.00 in 130 W/m2
17:30 77.2 °F 65.4 °F 29.92 in SW 1.0 mph 2.0 mph 67% 0.00 in 116 W/m2
17:36 77.1 °F 65.3 °F 29.92 in South 1.0 mph 2.0 mph 67% 0.00 in 98 W/m2
17:42 77.0 °F 65.2 °F 29.92 in SSE 1.0 mph 2.0 mph 67% 0.00 in 105 W/m2
17:48 77.0 °F 65.6 °F 29.92 in SSE 1.0 mph 2.0 mph 68% 0.00 in 102 W/m2
17:54 77.1 °F 66.1 °F 29.91 in SSE 1.0 mph 2.0 mph 69% 0.00 in 155 W/m2
18:00 77.2 °F 65.4 °F 29.91 in SSW 1.0 mph 2.0 mph 67% 0.00 in 125 W/m2
18:06 77.2 °F 65.4 °F 29.91 in SSW 2.0 mph 4.0 mph 67% 0.00 in 118 W/m2
18:12 77.1 °F 65.7 °F 29.91 in South 3.0 mph 4.0 mph 68% 0.00 in 146 W/m2
18:18 76.9 °F 65.1 °F 29.91 in SSE 3.0 mph 4.0 mph 67% 0.00 in 107 W/m2
18:24 76.9 °F 65.1 °F 29.91 in SSW 2.0 mph 3.0 mph 67% 0.00 in 102 W/m2
18:30 76.9 °F 65.1 °F 29.90 in SW 2.0 mph 4.0 mph 67% 0.00 in 104 W/m2
18:36 76.9 °F 65.1 °F 29.90 in SSE 2.0 mph 4.0 mph 67% 0.00 in 95 W/m2
18:42 76.8 °F 65.0 °F 29.90 in South 2.0 mph 4.0 mph 67% 0.00 in 74 W/m2
18:48 76.8 °F 65.4 °F 29.90 in South 1.0 mph 4.0 mph 68% 0.00 in 69 W/m2
18:54 76.7 °F 64.9 °F 29.90 in SSW 1.0 mph 5.0 mph 67% 0.00 in 97 W/m2
19:00 76.7 °F 64.5 °F 29.90 in SW 2.0 mph 4.0 mph 66% 0.00 in 91 W/m2
19:06 76.7 °F 64.9 °F 29.90 in SSW 2.0 mph 4.0 mph 67% 0.00 in 49 W/m2
19:12 76.6 °F 64.4 °F 29.90 in SSW 2.0 mph 4.0 mph 66% 0.00 in 39 W/m2
19:18 76.4 °F 64.6 °F 29.90 in SSW 2.0 mph 4.0 mph 67% 0.00 in 33 W/m2
19:24 76.1 °F 64.8 °F 29.90 in SSW 1.0 mph 2.0 mph 68% 0.00 in 33 W/m2
19:30 75.8 °F 65.3 °F 29.90 in South 1.0 mph 1.0 mph 70% 0.00 in 26 W/m2
19:36 75.3 °F 64.8 °F 29.90 in South 1.0 mph 1.0 mph 70% 0.00 in 25 W/m2
19:42 74.9 °F 65.3 °F 29.90 in Calm     72% 0.00 in 12 W/m2
19:48 74.1 °F 65.3 °F 29.90 in Calm     74% 0.00 in 11 W/m2
19:54 73.2 °F 65.2 °F 29.89 in Calm     76% 0.00 in 7 W/m2
20:00 72.2 °F 65.0 °F 29.89 in Calm     78% 0.00 in 5 W/m2
20:06 71.7 °F 64.8 °F 29.89 in Calm     79% 0.00 in 0 W/m2
20:12 71.2 °F 64.7 °F 29.89 in Calm     80% 0.00 in 0 W/m2
20:18 70.9 °F 64.8 °F 29.89 in Calm     81% 0.00 in 0 W/m2
20:24 70.7 °F 64.9 °F 29.89 in Calm     82% 0.00 in 0 W/m2
20:30 70.4 °F 64.6 °F 29.89 in Calm     82% 0.00 in 0 W/m2
20:36 70.1 °F 64.7 °F 29.88 in Calm     83% 0.00 in 0 W/m2
20:42 70.0 °F 64.6 °F 29.88 in Calm     83% 0.00 in 0 W/m2
20:48 69.8 °F 64.7 °F 29.89 in Calm     84% 0.00 in 0 W/m2
20:54 69.6 °F 64.5 °F 29.88 in Calm     84% 0.00 in 0 W/m2
21:00 69.3 °F 64.3 °F 29.88 in Calm     84% 0.00 in 0 W/m2
21:06 69.1 °F 64.4 °F 29.88 in Calm     85% 0.00 in 0 W/m2
21:12 68.8 °F 64.1 °F 29.88 in Calm     85% 0.00 in 0 W/m2
21:18 68.6 °F 64.2 °F 29.88 in Calm     86% 0.00 in 0 W/m2
21:24 68.4 °F 64.0 °F 29.88 in Calm     86% 0.00 in 0 W/m2
21:30 68.2 °F 64.2 °F 29.88 in Calm     87% 0.00 in 0 W/m2
21:36 68.1 °F 64.1 °F 29.88 in Calm     87% 0.00 in 0 W/m2
21:42 68.0 °F 64.0 °F 29.88 in Calm     87% 0.00 in 0 W/m2
21:48 67.9 °F 63.9 °F 29.88 in Calm     87% 0.00 in 0 W/m2
21:54 67.8 °F 63.8 °F 29.88 in Calm     87% 0.00 in 0 W/m2
22:00 67.7 °F 63.7 °F 29.88 in Calm     87% 0.00 in 0 W/m2
22:06 67.8 °F 64.1 °F 29.88 in Calm     88% 0.00 in 0 W/m2
22:12 67.8 °F 64.1 °F 29.88 in Calm     88% 0.00 in 0 W/m2
22:18 67.8 °F 64.1 °F 29.88 in Calm     88% 0.00 in 0 W/m2
22:24 67.8 °F 64.1 °F 29.88 in Calm   1.0 mph 88% 0.00 in 0 W/m2
22:30 67.8 °F 64.1 °F 29.88 in Calm     88% 0.00 in 0 W/m2
22:36 67.8 °F 64.1 °F 29.88 in Calm     88% 0.00 in 0 W/m2
22:42 67.7 °F 64.0 °F 29.87 in Calm     88% 0.00 in 0 W/m2
22:48 67.5 °F 63.8 °F 29.87 in Calm     88% 0.00 in 0 W/m2
22:54 67.6 °F 63.9 °F 29.87 in Calm   1.0 mph 88% 0.00 in 0 W/m2
23:00 67.6 °F 63.9 °F 29.87 in Calm     88% 0.00 in 0 W/m2
23:06 67.4 °F 63.7 °F 29.87 in Calm     88% 0.00 in 0 W/m2
23:12 67.3 °F 63.6 °F 29.86 in Calm   3.0 mph 88% 0.00 in 0 W/m2
23:18 68.3 °F 64.3 °F 29.86 in SSE 1.0 mph 3.0 mph 87% 0.00 in 0 W/m2
23:24 69.2 °F 64.2 °F 29.86 in South 2.0 mph 4.0 mph 84% 0.00 in 0 W/m2
23:30 69.9 °F 64.2 °F 29.86 in SSE 3.0 mph 3.0 mph 82% 0.00 in 0 W/m2
23:36 70.2 °F 64.1 °F 29.86 in SSE 3.0 mph 3.0 mph 81% 0.00 in 0 W/m2
23:42 70.2 °F 63.7 °F 29.86 in South 3.0 mph 3.0 mph 80% 0.00 in 0 W/m2
23:48 70.1 °F 63.6 °F 29.86 in South 2.0 mph 4.0 mph 80% 0.00 in 0 W/m2
23:54 69.9 °F 63.4 °F 29.86 in South 2.0 mph 3.0 mph 80% 0.00 in 0 W/m2
Country Meadow, Clay, NY, USA
Compliments of Weather Underground - 2 mb